Time;durP1;ratioP1;P1;durP2;ratioP2;P2;SDS_P1;SDS_P2;PMS_P1;PMS_P2;Temp;Humidity;BMP_temperature;BMP_pressure;BME280_temperature;BME280_humidity;BME280_pressure;Samples;Min_cycle;Max_cycle;Signal;HPM_P1;HPM_P2
2021/05/31 00:00:02;;;;;;;1.73;1.37;;;29.20;41.60;;;;;;5147028;27;20469;-41
2021/05/31 00:02:34;;;;;;;1.30;1.20;;;29.20;41.50;;;;;;5146646;27;20450;-42
2021/05/31 00:05:05;;;;;;;2.13;1.00;;;29.10;42.40;;;;;;5147284;27;20444;-41
2021/05/31 00:07:36;;;;;;;2.00;1.40;;;29.10;42.20;;;;;;5147436;27;20442;-42
2021/05/31 00:10:07;;;;;;;1.40;1.30;;;29.10;41.70;;;;;;5144212;27;20794;-41
2021/05/31 00:12:38;;;;;;;4.03;1.53;;;29.10;42.40;;;;;;5146444;27;20437;-42
2021/05/31 00:15:10;;;;;;;1.97;1.63;;;28.90;43.10;;;;;;5145952;27;20487;-41
2021/05/31 00:17:41;;;;;;;1.43;1.00;;;28.70;43.50;;;;;;5144055;27;20479;-41
2021/05/31 00:20:13;;;;;;;0.97;0.87;;;28.50;43.30;;;;;;5144320;27;20445;-42
2021/05/31 00:22:44;;;;;;;1.20;1.10;;;28.30;43.10;;;;;;5147460;27;20560;-41
2021/05/31 00:25:16;;;;;;;1.30;1.20;;;28.30;42.70;;;;;;5147181;27;20452;-42
2021/05/31 00:27:46;;;;;;;1.60;1.50;;;28.30;43.20;;;;;;5147118;27;20462;-40
2021/05/31 00:30:21;;;;;;;1.47;1.30;;;28.10;43.50;;;;;;5146061;27;20584;-41
2021/05/31 00:32:54;;;;;;;1.83;1.20;;;28.00;43.80;;;;;;5146893;27;20457;-41
2021/05/31 00:35:27;;;;;;;2.00;1.80;;;27.90;44.80;;;;;;5146489;27;20478;-41
2021/05/31 00:37:57;;;;;;;1.97;1.87;;;27.90;45.10;;;;;;5138915;27;20476;-42
2021/05/31 00:40:28;;;;;;;2.40;1.80;;;27.90;44.60;;;;;;5127660;27;20453;-40
2021/05/31 00:42:58;;;;;;;1.67;1.50;;;27.80;45.60;;;;;;5129245;27;20548;-40
2021/05/31 00:45:31;;;;;;;1.47;1.37;;;27.70;45.40;;;;;;5145801;27;20446;-41
2021/05/31 00:48:02;;;;;;;1.80;1.70;;;27.60;44.90;;;;;;5143087;27;20499;-41
2021/05/31 00:50:34;;;;;;;1.90;1.70;;;27.40;47.30;;;;;;5132359;27;20535;-40
2021/05/31 00:53:05;;;;;;;1.37;1.27;;;27.50;47.10;;;;;;5142530;27;20585;-40
2021/05/31 00:55:35;;;;;;;1.57;1.47;;;27.40;46.50;;;;;;5146873;27;20509;-41
2021/05/31 00:58:06;;;;;;;3.43;1.47;;;27.40;46.20;;;;;;5146184;27;20439;-40
2021/05/31 01:00:38;;;;;;;3.10;1.97;;;27.40;46.00;;;;;;5143446;27;20454;-41
2021/05/31 01:03:10;;;;;;;2.03;1.83;;;27.30;46.90;;;;;;5145201;27;20479;-41
2021/05/31 01:05:41;;;;;;;1.73;1.63;;;27.10;48.20;;;;;;5145468;27;20461;-38
2021/05/31 01:08:14;;;;;;;1.90;1.80;;;27.00;48.40;;;;;;5146693;27;20440;-41
2021/05/31 01:10:53;;;;;;;2.07;1.63;;;27.10;48.20;;;;;;5146212;27;20469;-41
2021/05/31 01:13:32;;;;;;;1.57;1.47;;;27.00;49.30;;;;;;5146836;27;20442;-41
2021/05/31 01:16:09;;;;;;;1.77;1.67;;;27.00;46.10;;;;;;5133547;27;20508;-41
2021/05/31 01:18:42;;;;;;;1.87;1.67;;;26.90;46.20;;;;;;5146422;27;20445;-42
2021/05/31 01:21:24;;;;;;;2.67;2.00;;;26.80;45.70;;;;;;5145324;27;20464;-41
2021/05/31 01:24:03;;;;;;;1.57;1.47;;;26.80;45.60;;;;;;5146166;27;20441;-41
2021/05/31 01:26:47;;;;;;;2.57;1.60;;;26.80;45.10;;;;;;5146103;27;20548;-41
2021/05/31 01:29:25;;;;;;;1.93;1.70;;;26.60;45.90;;;;;;5144743;27;20449;-41
2021/05/31 01:31:59;;;;;;;2.43;1.87;;;26.60;46.60;;;;;;5144460;27;20447;-41
2021/05/31 01:34:32;;;;;;;1.30;1.30;;;26.60;47.40;;;;;;5146309;27;20448;-41
2021/05/31 01:37:06;;;;;;;1.70;1.60;;;26.50;46.50;;;;;;5141202;27;20454;-40
2021/05/31 01:39:38;;;;;;;1.67;1.53;;;26.40;45.80;;;;;;5143551;27;20449;-41
2021/05/31 01:42:10;;;;;;;1.60;1.50;;;26.40;46.50;;;;;;5132304;27;20445;-40
2021/05/31 01:44:44;;;;;;;1.70;1.60;;;26.30;47.40;;;;;;5144812;27;20452;-40
2021/05/31 01:47:15;;;;;;;2.00;1.80;;;26.30;46.70;;;;;;5144968;27;20530;-40
2021/05/31 01:49:46;;;;;;;1.17;1.17;;;26.20;48.00;;;;;;5145327;27;20540;-40
2021/05/31 01:52:18;;;;;;;2.07;1.97;;;26.20;47.50;;;;;;5140021;27;20592;-41
2021/05/31 01:54:50;;;;;;;1.60;1.50;;;26.20;48.00;;;;;;5145732;27;20453;-41
2021/05/31 01:57:22;;;;;;;1.60;1.50;;;26.10;49.10;;;;;;5145494;27;20796;-41
2021/05/31 01:59:55;;;;;;;1.70;1.60;;;26.10;49.00;;;;;;5143685;27;20759;-41
2021/05/31 02:02:45;;;;;;;1.73;1.63;;;26.00;49.20;;;;;;5142097;27;20531;-41
2021/05/31 02:05:17;;;;;;;2.03;1.80;;;25.90;48.60;;;;;;5140634;27;20441;-41
2021/05/31 02:07:47;;;;;;;2.27;2.17;;;25.90;48.10;;;;;;5144757;27;20454;-41
2021/05/31 02:10:18;;;;;;;2.77;2.30;;;25.90;48.70;;;;;;5136095;27;20552;-41
2021/05/31 02:12:52;;;;;;;2.03;1.80;;;25.70;49.30;;;;;;5140440;27;20508;-41
2021/05/31 02:15:33;;;;;;;2.63;2.13;;;25.70;49.00;;;;;;5138026;27;20519;-42
2021/05/31 02:18:11;;;;;;;1.90;1.80;;;25.70;49.40;;;;;;5144626;27;20441;-40
2021/05/31 02:20:45;;;;;;;2.00;1.80;;;25.60;48.90;;;;;;5144379;27;20479;-41
2021/05/31 02:23:16;;;;;;;1.73;1.63;;;25.60;49.60;;;;;;5145307;27;20585;-41
2021/05/31 02:25:48;;;;;;;4.27;2.10;;;25.50;49.80;;;;;;5144262;27;20453;-41
2021/05/31 02:28:19;;;;;;;2.20;2.10;;;25.50;49.90;;;;;;5144579;27;20456;-41
2021/05/31 02:30:53;;;;;;;2.60;2.10;;;25.50;50.00;;;;;;5143086;27;20479;-41
2021/05/31 02:33:25;;;;;;;1.83;1.70;;;25.40;50.30;;;;;;5143033;27;20464;-42
2021/05/31 02:35:56;;;;;;;2.03;1.80;;;25.30;50.90;;;;;;5141660;27;20472;-42
2021/05/31 02:38:26;;;;;;;2.00;1.73;;;25.30;51.40;;;;;;5141562;27;20460;-36
2021/05/31 02:40:57;;;;;;;3.23;1.50;;;25.20;51.60;;;;;;5143667;27;20480;-41
2021/05/31 02:43:27;;;;;;;2.20;2.00;;;25.20;51.80;;;;;;5144569;27;20455;-42
2021/05/31 02:46:00;;;;;;;2.23;2.00;;;25.00;52.30;;;;;;5143633;27;20459;-41
2021/05/31 02:48:30;;;;;;;2.07;1.97;;;24.90;53.10;;;;;;5141837;27;20445;-41
2021/05/31 02:51:02;;;;;;;2.43;2.10;;;24.80;53.40;;;;;;5144102;27;20465;-40
2021/05/31 02:53:33;;;;;;;2.23;2.07;;;24.80;53.30;;;;;;5144128;27;20441;-40
2021/05/31 02:56:04;;;;;;;2.50;2.30;;;24.70;53.30;;;;;;5141753;27;20487;-40
2021/05/31 02:58:34;;;;;;;2.60;2.40;;;24.70;53.00;;;;;;5144642;27;20953;-41
2021/05/31 03:01:06;;;;;;;4.63;2.17;;;24.70;53.40;;;;;;5143250;27;20484;-41
2021/05/31 03:03:37;;;;;;;2.97;2.77;;;24.60;53.50;;;;;;5144233;27;20444;-41
2021/05/31 03:06:07;;;;;;;2.00;1.90;;;24.60;53.40;;;;;;5143727;27;20460;-41
2021/05/31 03:08:38;;;;;;;2.37;2.27;;;24.60;53.40;;;;;;5144868;27;20444;-41
2021/05/31 03:11:08;;;;;;;2.20;2.10;;;24.50;53.40;;;;;;5142938;27;20452;-41
2021/05/31 03:13:42;;;;;;;2.57;2.37;;;24.50;53.70;;;;;;5144293;27;20445;-40
2021/05/31 03:16:14;;;;;;;2.50;2.30;;;24.50;53.40;;;;;;5143407;27;20538;-40
2021/05/31 03:18:45;;;;;;;2.33;2.10;;;24.40;53.50;;;;;;5144141;27;20445;-41
2021/05/31 03:21:16;;;;;;;2.73;2.53;;;24.30;54.00;;;;;;5143792;27;20419;-41
2021/05/31 03:23:46;;;;;;;2.40;2.20;;;24.30;54.90;;;;;;5137521;27;20497;-41
2021/05/31 03:26:17;;;;;;;2.60;2.40;;;24.20;55.20;;;;;;5144302;27;20427;-41
2021/05/31 03:28:48;;;;;;;2.63;2.43;;;24.10;55.50;;;;;;5144324;27;20472;-39
2021/05/31 03:31:20;;;;;;;2.43;2.30;;;24.00;55.50;;;;;;5138593;27;21025;-41
2021/05/31 03:33:51;;;;;;;2.40;2.20;;;23.80;56.90;;;;;;5143584;28;20449;-41
2021/05/31 03:36:21;;;;;;;2.60;2.50;;;23.70;56.80;;;;;;5143843;28;20464;-39
2021/05/31 03:38:52;;;;;;;2.50;2.00;;;23.70;56.90;;;;;;5141699;28;20460;-43
2021/05/31 03:41:23;;;;;;;3.30;2.47;;;23.60;57.70;;;;;;5143622;28;20769;-42
2021/05/31 03:43:53;;;;;;;7.03;2.47;;;23.50;58.20;;;;;;5143406;28;20544;-40
2021/05/31 03:46:26;;;;;;;2.60;2.40;;;23.50;58.30;;;;;;5143356;28;20448;-40
2021/05/31 03:48:56;;;;;;;2.50;2.30;;;23.40;58.80;;;;;;5143668;28;20498;-40
2021/05/31 03:51:27;;;;;;;2.57;2.37;;;23.40;58.80;;;;;;5140200;28;20896;-41
2021/05/31 03:53:58;;;;;;;3.93;2.20;;;23.40;59.10;;;;;;5142970;28;20476;-41
2021/05/31 03:56:28;;;;;;;2.57;2.37;;;23.20;60.20;;;;;;5143911;28;20487;-41
2021/05/31 03:58:59;;;;;;;2.07;1.97;;;23.10;60.40;;;;;;5143105;28;20450;-41
2021/05/31 04:01:31;;;;;;;2.23;2.13;;;23.10;59.60;;;;;;5142301;28;20454;-41
2021/05/31 04:04:02;;;;;;;2.47;2.27;;;23.10;59.50;;;;;;5142445;28;20429;-42
2021/05/31 04:06:43;;;;;;;2.70;2.50;;;23.00;59.80;;;;;;5142859;28;20451;-42
2021/05/31 04:12:00;;;;;;;2.27;2.17;;;22.90;60.10;;;;;;5103552;28;20445;-41
2021/05/31 04:14:31;;;;;;;4.17;2.20;;;22.70;60.10;;;;;;5143125;28;20778;-40
2021/05/31 04:17:03;;;;;;;9.07;2.73;;;22.70;61.40;;;;;;5143488;28;20512;-41
2021/05/31 04:19:34;;;;;;;2.80;2.60;;;22.70;60.80;;;;;;5143275;28;20510;-41
2021/05/31 04:22:05;;;;;;;2.70;2.50;;;22.60;62.10;;;;;;5143580;28;20453;-41
2021/05/31 04:24:35;;;;;;;2.47;2.27;;;22.50;62.70;;;;;;5143351;28;20420;-39
2021/05/31 04:27:06;;;;;;;2.90;2.70;;;22.40;63.90;;;;;;5143697;28;20443;-41
2021/05/31 04:29:37;;;;;;;2.83;2.60;;;22.40;64.90;;;;;;5144820;27;20436;-40
2021/05/31 04:32:09;;;;;;;4.60;3.03;;;22.30;66.10;;;;;;5146744;27;20462;-40
2021/05/31 04:34:40;;;;;;;4.30;3.30;;;22.30;67.50;;;;;;5145411;27;20832;-41
2021/05/31 04:37:10;;;;;;;4.03;3.53;;;22.20;68.10;;;;;;5147390;27;20472;-41
2021/05/31 04:39:40;;;;;;;3.20;3.00;;;22.20;69.00;;;;;;5146963;27;20438;-40
2021/05/31 04:42:11;;;;;;;3.30;3.10;;;22.10;70.40;;;;;;5146825;27;20415;-39
2021/05/31 04:44:42;;;;;;;4.00;3.30;;;22.10;71.20;;;;;;5146393;27;20426;-40
2021/05/31 04:47:14;;;;;;;3.30;2.60;;;22.00;71.80;;;;;;5145729;27;20468;-41
2021/05/31 04:49:44;;;;;;;3.53;3.23;;;22.00;72.10;;;;;;5146405;27;20911;-40
2021/05/31 04:52:15;;;;;;;3.20;3.00;;;22.00;73.40;;;;;;5140825;27;20705;-39
2021/05/31 04:54:48;;;;;;;3.80;3.50;;;21.80;74.50;;;;;;5145294;27;20420;-40
2021/05/31 04:57:18;;;;;;;3.50;3.20;;;21.70;74.80;;;;;;5145951;27;20524;-41
2021/05/31 04:59:48;;;;;;;3.93;3.60;;;21.60;76.10;;;;;;5143150;27;20453;-40
2021/05/31 05:02:20;;;;;;;4.93;4.63;;;21.50;76.80;;;;;;5143966;27;20451;-40
2021/05/31 05:04:52;;;;;;;3.83;3.60;;;21.40;78.50;;;;;;5145676;27;20730;-40
2021/05/31 05:07:23;;;;;;;4.70;3.20;;;21.30;77.80;;;;;;5145851;27;20424;-38
2021/05/31 05:09:54;;;;;;;6.40;3.27;;;21.20;78.90;;;;;;5146567;27;20476;-39
2021/05/31 05:12:24;;;;;;;4.00;3.63;;;21.20;80.10;;;;;;5145640;27;20430;-41
2021/05/31 05:14:55;;;;;;;4.70;3.43;;;21.20;80.70;;;;;;5145689;27;20449;-41
2021/05/31 05:17:27;;;;;;;4.13;2.93;;;21.10;80.70;;;;;;5144766;27;20455;-40
2021/05/31 05:19:57;;;;;;;3.70;3.40;;;21.00;81.70;;;;;;5141744;27;20467;-40
2021/05/31 05:22:28;;;;;;;3.33;2.90;;;21.00;81.90;;;;;;5139555;27;20479;-40
2021/05/31 05:24:59;;;;;;;3.10;2.90;;;21.00;82.30;;;;;;5140334;27;20446;-37
2021/05/31 05:27:29;;;;;;;4.93;3.00;;;21.00;83.40;;;;;;5145913;27;20453;-37
2021/05/31 05:30:00;;;;;;;4.03;3.67;;;21.00;84.30;;;;;;5145298;27;20445;-40
2021/05/31 05:32:36;;;;;;;4.03;3.73;;;20.90;83.60;;;;;;5139971;27;20407;-41
2021/05/31 05:35:14;;;;;;;4.07;3.77;;;20.90;83.30;;;;;;5145724;27;20472;-40
2021/05/31 05:37:59;;;;;;;3.07;2.87;;;20.90;83.30;;;;;;5143808;27;20458;-40
2021/05/31 05:43:35;;;;;;;3.60;3.10;;;20.80;84.70;;;;;;5146016;27;20502;-40
2021/05/31 05:46:31;;;;;;;4.10;3.80;;;20.70;85.70;;;;;;5144741;27;20453;-39
2021/05/31 05:49:05;;;;;;;4.27;3.87;;;20.60;85.70;;;;;;5143382;27;20434;-40
2021/05/31 05:51:35;;;;;;;4.70;4.30;;;20.50;86.90;;;;;;5144188;27;20486;-40
2021/05/31 05:54:06;;;;;;;3.80;3.57;;;20.40;87.90;;;;;;5144700;27;20436;-40
2021/05/31 05:56:37;;;;;;;3.87;3.57;;;20.30;88.20;;;;;;5133844;27;20451;-40
2021/05/31 05:59:07;;;;;;;5.00;4.10;;;20.30;88.40;;;;;;5135696;27;20434;-40
2021/05/31 06:01:44;;;;;;;3.90;3.60;;;20.20;88.40;;;;;;5141601;27;20440;-40
2021/05/31 06:04:16;;;;;;;4.07;3.63;;;20.10;88.70;;;;;;5136829;27;20447;-40
2021/05/31 06:06:47;;;;;;;4.03;3.70;;;20.10;88.70;;;;;;5144882;27;20453;-40
2021/05/31 06:09:17;;;;;;;4.87;4.23;;;20.00;89.50;;;;;;5143046;27;20448;-39
2021/05/31 06:11:48;;;;;;;7.10;4.87;;;20.00;90.10;;;;;;5145328;27;20500;-40
2021/05/31 06:14:19;;;;;;;5.47;4.97;;;19.90;89.50;;;;;;5145222;27;20909;-39
2021/05/31 06:16:49;;;;;;;5.53;5.03;;;19.80;90.20;;;;;;5144188;27;20458;-39
2021/05/31 06:19:22;;;;;;;5.17;4.37;;;19.80;90.80;;;;;;5143869;27;20584;-39
2021/05/31 06:21:52;;;;;;;3.57;3.27;;;19.70;91.30;;;;;;5143326;27;20426;-40
2021/05/31 06:24:23;;;;;;;3.80;3.50;;;19.70;90.80;;;;;;5144671;27;20801;-40
2021/05/31 06:26:53;;;;;;;3.90;3.20;;;19.60;91.10;;;;;;5144989;27;20443;-39
2021/05/31 06:29:24;;;;;;;3.80;3.30;;;19.50;91.40;;;;;;5135817;27;20502;-39
2021/05/31 06:31:54;;;;;;;3.87;3.60;;;19.50;92.30;;;;;;5143570;27;20434;-40
2021/05/31 06:34:26;;;;;;;3.40;3.00;;;19.40;91.50;;;;;;5143977;27;20431;-40
2021/05/31 06:36:57;;;;;;;3.50;3.30;;;19.40;91.30;;;;;;5143698;27;20488;-40
2021/05/31 06:39:27;;;;;;;3.00;2.80;;;19.30;91.30;;;;;;5143947;27;20445;-39
2021/05/31 06:41:58;;;;;;;3.73;3.37;;;19.30;91.40;;;;;;5144065;27;20744;-40
2021/05/31 06:44:28;;;;;;;4.53;3.03;;;19.20;91.50;;;;;;5143934;27;20453;-40
2021/05/31 06:46:59;;;;;;;3.20;3.00;;;19.20;91.60;;;;;;5143858;27;20556;-40
2021/05/31 06:49:31;;;;;;;3.53;3.23;;;19.20;91.90;;;;;;5143887;27;20451;-39
2021/05/31 06:52:04;;;;;;;3.40;3.20;;;19.10;92.40;;;;;;5142232;27;20529;-40
2021/05/31 06:54:35;;;;;;;3.70;3.40;;;19.10;92.30;;;;;;5144170;27;20415;-40
2021/05/31 06:57:27;;;;;;;3.37;3.10;;;19.00;93.40;;;;;;5144233;27;20492;-40
2021/05/31 06:59:58;;;;;;;3.30;3.10;;;19.00;93.10;;;;;;5144060;27;20457;-40
2021/05/31 07:02:29;;;;;;;2.90;2.60;;;18.90;93.50;;;;;;5143255;27;20955;-40
2021/05/31 07:05:02;;;;;;;3.53;3.23;;;18.80;93.70;;;;;;5143696;27;20435;-40
2021/05/31 07:07:33;;;;;;;3.47;3.17;;;18.80;93.70;;;;;;5144267;27;20479;-40
2021/05/31 07:10:04;;;;;;;3.50;3.20;;;18.80;93.40;;;;;;5143857;27;20786;-40
2021/05/31 07:12:34;;;;;;;3.50;3.20;;;18.70;93.20;;;;;;5144223;27;20513;-40
2021/05/31 07:15:07;;;;;;;3.13;2.93;;;18.70;93.70;;;;;;5143819;27;20453;-39
2021/05/31 07:17:38;;;;;;;4.17;3.13;;;18.60;93.80;;;;;;5142320;27;20515;-39
2021/05/31 07:20:13;;;;;;;3.20;2.93;;;18.60;94.90;;;;;;5142718;27;20479;-40
2021/05/31 07:22:45;;;;;;;4.40;3.43;;;18.50;94.70;;;;;;5144095;27;20448;-40
2021/05/31 07:25:18;;;;;;;3.50;3.20;;;18.50;94.90;;;;;;5143956;27;20441;-40
2021/05/31 07:27:48;;;;;;;3.03;2.83;;;18.50;95.20;;;;;;5143495;27;20445;-39
2021/05/31 07:30:20;;;;;;;2.87;2.67;;;18.40;95.10;;;;;;5143358;27;20822;-40
2021/05/31 07:32:50;;;;;;;4.07;3.37;;;18.40;95.20;;;;;;5143179;27;20445;-40
2021/05/31 07:35:23;;;;;;;2.90;2.70;;;18.30;95.20;;;;;;5143649;28;20528;-40
2021/05/31 07:37:53;;;;;;;3.20;3.00;;;18.30;95.30;;;;;;5132410;28;20460;-40
2021/05/31 07:40:24;;;;;;;3.90;3.60;;;18.30;95.90;;;;;;5142846;28;20514;-41
2021/05/31 07:42:55;;;;;;;3.70;3.40;;;18.20;96.50;;;;;;5144147;28;20434;-40
2021/05/31 07:45:26;;;;;;;6.27;3.23;;;18.20;96.80;;;;;;5143666;28;20818;-40
2021/05/31 07:47:56;;;;;;;5.30;3.00;;;18.20;96.80;;;;;;5142592;28;20481;-40
2021/05/31 07:50:29;;;;;;;3.57;3.27;;;18.20;97.60;;;;;;5142676;28;20419;-40
2021/05/31 07:52:59;;;;;;;3.27;2.97;;;18.10;97.70;;;;;;5143129;28;21108;-40
2021/05/31 07:55:30;;;;;;;3.40;3.20;;;18.00;98.60;;;;;;5143869;28;20449;-40
2021/05/31 07:58:00;;;;;;;3.50;3.20;;;18.00;98.30;;;;;;5143757;28;20831;-40
2021/05/31 08:00:31;;;;;;;3.53;3.23;;;17.90;99.90;;;;;;5148095;27;20506;-40
2021/05/31 08:03:01;;;;;;;3.73;3.43;;;17.90;99.90;;;;;;5143032;27;20451;-40
2021/05/31 08:05:33;;;;;;;3.20;2.90;;;17.80;99.90;;;;;;5147798;27;20487;-38
2021/05/31 08:08:04;;;;;;;3.10;2.90;;;17.70;99.90;;;;;;5147061;27;20411;-40
2021/05/31 08:10:35;;;;;;;3.60;3.30;;;17.70;99.90;;;;;;5147598;27;20423;-40
2021/05/31 08:13:05;;;;;;;3.33;3.13;;;17.70;99.90;;;;;;5147675;27;20459;-39
2021/05/31 08:15:36;;;;;;;3.70;3.40;;;17.60;99.90;;;;;;5146472;27;20579;-40
2021/05/31 08:18:06;;;;;;;3.43;2.90;;;17.60;99.90;;;;;;5146960;27;20487;-39
2021/05/31 08:20:39;;;;;;;3.63;3.03;;;17.60;99.90;;;;;;5147285;27;20480;-39
2021/05/31 08:23:09;;;;;;;3.50;3.30;;;17.60;99.90;;;;;;5146904;27;20453;-39
2021/05/31 08:25:41;;;;;;;3.40;3.20;;;17.50;99.90;;;;;;5147780;27;20433;-40
2021/05/31 08:28:11;;;;;;;3.30;3.00;;;17.50;99.90;;;;;;5147099;27;20468;-39
2021/05/31 08:30:43;;;;;;;3.63;3.33;;;17.50;99.90;;;;;;5144537;27;20778;-40
2021/05/31 08:33:13;;;;;;;2.80;2.60;;;17.40;99.90;;;;;;5145481;27;20501;-40
2021/05/31 08:35:47;;;;;;;3.53;3.23;;;17.30;99.90;;;;;;5147293;27;20468;-40
2021/05/31 08:38:18;;;;;;;3.13;2.83;;;17.20;99.90;;;;;;5138669;27;20621;-39
2021/05/31 08:40:48;;;;;;;3.63;3.33;;;17.20;99.90;;;;;;5141457;27;20445;-40
2021/05/31 08:43:19;;;;;;;3.60;3.40;;;17.10;99.90;;;;;;5146732;27;20454;-40
2021/05/31 08:45:50;;;;;;;3.53;3.23;;;17.10;99.90;;;;;;5145905;27;20423;-40
2021/05/31 08:48:23;;;;;;;3.37;3.10;;;17.00;99.90;;;;;;5146000;27;20905;-40
2021/05/31 08:50:57;;;;;;;2.80;2.60;;;16.90;99.90;;;;;;5146897;27;20837;-40
2021/05/31 08:53:28;;;;;;;3.70;3.40;;;16.90;99.90;;;;;;5146663;27;20441;-39
2021/05/31 08:55:58;;;;;;;4.17;3.27;;;16.80;99.90;;;;;;5146762;27;20437;-39
2021/05/31 08:58:29;;;;;;;3.67;3.37;;;16.80;99.90;;;;;;5143165;27;20484;-39
2021/05/31 09:00:59;;;;;;;4.73;2.97;;;16.60;99.90;;;;;;5144344;27;20456;-39
2021/05/31 09:03:30;;;;;;;3.40;3.10;;;16.70;99.90;;;;;;5146135;27;20449;-40
2021/05/31 09:06:04;;;;;;;3.93;3.53;;;16.60;99.90;;;;;;5146173;27;20944;-36
2021/05/31 09:08:35;;;;;;;3.30;3.10;;;16.60;99.90;;;;;;5144815;27;20471;-39
2021/05/31 09:11:07;;;;;;;4.00;3.43;;;16.60;99.90;;;;;;5146621;27;20429;-39
2021/05/31 09:13:40;;;;;;;4.30;3.50;;;16.50;99.90;;;;;;5146396;27;20476;-39
2021/05/31 09:16:13;;;;;;;5.63;3.70;;;16.40;99.90;;;;;;5145086;27;20459;-40
2021/05/31 09:18:49;;;;;;;3.77;3.47;;;16.40;99.90;;;;;;5145481;27;20492;-39
2021/05/31 09:21:23;;;;;;;3.40;3.10;;;16.40;99.90;;;;;;5146063;27;20452;-40
2021/05/31 09:23:55;;;;;;;4.40;3.50;;;16.20;99.90;;;;;;5145717;27;20445;-38
2021/05/31 09:26:26;;;;;;;3.60;3.20;;;16.20;99.90;;;;;;5146315;27;20460;-40
2021/05/31 09:28:59;;;;;;;4.00;3.70;;;16.10;99.90;;;;;;5145247;27;20447;-39
2021/05/31 09:31:30;;;;;;;4.20;3.80;;;16.10;99.90;;;;;;5140205;27;20456;-39
2021/05/31 09:34:04;;;;;;;3.87;3.57;;;16.00;99.90;;;;;;5145491;27;20448;-39
2021/05/31 09:36:48;;;;;;;3.90;3.60;;;15.90;99.90;;;;;;5145131;27;20457;-40
2021/05/31 09:39:21;;;;;;;3.73;3.43;;;15.80;99.90;;;;;;5142659;27;20487;-40
2021/05/31 09:42:01;;;;;;;3.57;3.27;;;15.80;99.90;;;;;;5146193;27;20465;-39
2021/05/31 09:44:32;;;;;;;3.67;3.37;;;15.80;99.90;;;;;;5145625;27;20436;-39
2021/05/31 09:47:02;;;;;;;3.50;3.20;;;15.70;99.90;;;;;;5146039;27;20451;-40
2021/05/31 09:49:35;;;;;;;4.90;3.47;;;15.70;99.90;;;;;;5144658;27;20478;-39
2021/05/31 09:52:10;;;;;;;3.80;3.50;;;15.60;99.90;;;;;;5144418;27;20473;-40
2021/05/31 09:54:42;;;;;;;3.77;3.47;;;15.60;99.90;;;;;;5145568;27;20440;-40
2021/05/31 09:57:19;;;;;;;3.23;3.03;;;15.60;99.90;;;;;;5145719;27;20461;-39
2021/05/31 09:59:52;;;;;;;3.93;3.13;;;15.70;99.90;;;;;;5144408;27;20449;-39
2021/05/31 10:02:37;;;;;;;3.70;3.40;;;15.70;99.90;;;;;;5144717;27;20451;-38
2021/05/31 10:05:14;;;;;;;3.73;3.43;;;15.60;99.90;;;;;;5145477;27;20445;-39
2021/05/31 10:07:53;;;;;;;3.10;2.80;;;15.60;99.90;;;;;;5145168;27;20468;-39
2021/05/31 10:10:23;;;;;;;3.90;3.50;;;15.50;99.90;;;;;;5144252;27;20449;-39
2021/05/31 10:12:55;;;;;;;3.33;3.13;;;15.50;99.90;;;;;;5144417;27;20445;-40
2021/05/31 10:15:27;;;;;;;3.80;3.43;;;15.50;99.90;;;;;;5145380;27;20448;-39
2021/05/31 10:17:59;;;;;;;3.50;3.20;;;15.50;99.90;;;;;;5145663;27;20472;-39
2021/05/31 10:20:31;;;;;;;3.50;3.20;;;15.50;99.90;;;;;;5144174;27;20484;-37
2021/05/31 10:23:07;;;;;;;4.00;3.67;;;15.50;99.90;;;;;;5131921;27;20444;-40
2021/05/31 10:25:42;;;;;;;4.50;3.33;;;15.60;99.90;;;;;;5144397;27;20441;-39
2021/05/31 10:28:15;;;;;;;3.70;3.40;;;15.50;99.90;;;;;;5145431;27;20444;-40
2021/05/31 10:30:48;;;;;;;3.40;3.20;;;15.50;99.90;;;;;;5141358;27;20440;-40
2021/05/31 10:33:20;;;;;;;3.47;3.23;;;15.50;99.90;;;;;;5145315;27;20437;-40
2021/05/31 10:35:52;;;;;;;3.90;3.60;;;15.50;99.90;;;;;;5145336;27;20540;-38
2021/05/31 10:38:27;;;;;;;3.80;3.50;;;15.40;99.90;;;;;;5132551;27;20484;-38
2021/05/31 10:40:58;;;;;;;3.57;3.37;;;15.40;99.90;;;;;;5142752;27;20501;-40
2021/05/31 10:43:28;;;;;;;3.83;3.43;;;15.30;99.90;;;;;;5145469;27;20453;-40
2021/05/31 10:46:06;;;;;;;3.37;3.07;;;15.20;99.90;;;;;;5144184;27;20445;-40
2021/05/31 10:48:45;;;;;;;3.80;3.50;;;15.10;99.90;;;;;;5145634;27;20456;-41
2021/05/31 10:51:19;;;;;;;5.10;3.40;;;15.00;99.90;;;;;;5139704;27;20590;-40
2021/05/31 10:53:51;;;;;;;3.63;3.33;;;15.00;99.90;;;;;;5144788;27;20445;-39
2021/05/31 10:56:27;;;;;;;4.30;3.90;;;15.00;99.90;;;;;;5141648;27;20480;-39
2021/05/31 10:58:59;;;;;;;3.20;2.90;;;15.10;99.90;;;;;;5129420;27;20516;-39
2021/05/31 11:01:40;;;;;;;4.30;3.50;;;15.10;99.90;;;;;;5141244;27;20811;-39
2021/05/31 11:04:22;;;;;;;4.30;3.10;;;15.00;99.90;;;;;;5141075;27;20433;-39
2021/05/31 11:06:54;;;;;;;3.70;3.40;;;14.90;99.90;;;;;;5142905;27;20456;-40
2021/05/31 11:09:33;;;;;;;3.53;3.27;;;14.90;99.90;;;;;;5143902;27;20780;-39
2021/05/31 11:12:05;;;;;;;3.53;3.23;;;14.90;99.90;;;;;;5139296;27;20853;-40
2021/05/31 11:14:38;;;;;;;5.03;3.40;;;14.80;99.90;;;;;;5143663;27;20480;-39
2021/05/31 11:17:12;;;;;;;4.10;3.10;;;14.80;99.90;;;;;;5143933;27;20448;-39
2021/05/31 11:19:44;;;;;;;3.47;3.20;;;14.80;99.90;;;;;;5144002;27;20484;-40
2021/05/31 11:22:17;;;;;;;4.03;3.63;;;14.70;99.90;;;;;;5144611;27;20441;-40
2021/05/31 11:24:54;;;;;;;4.00;3.50;;;14.70;99.90;;;;;;5144127;27;20441;-39
2021/05/31 11:27:24;;;;;;;3.40;3.20;;;14.70;99.90;;;;;;5143451;27;20808;-39
2021/05/31 11:29:55;;;;;;;3.83;3.53;;;14.70;99.90;;;;;;5142559;27;20445;-40
2021/05/31 11:32:28;;;;;;;3.67;3.23;;;14.70;99.90;;;;;;5140444;27;20460;-37
2021/05/31 11:35:04;;;;;;;3.50;3.20;;;14.60;99.90;;;;;;5142626;27;20469;-39
2021/05/31 11:37:56;;;;;;;3.63;3.37;;;14.50;99.90;;;;;;5132383;28;20545;-39
2021/05/31 11:40:31;;;;;;;4.10;3.80;;;14.60;99.90;;;;;;5139265;28;20923;-39
2021/05/31 11:43:03;;;;;;;3.60;3.30;;;14.50;99.90;;;;;;5142451;28;20437;-40
2021/05/31 11:45:36;;;;;;;6.30;3.50;;;14.40;99.90;;;;;;5143796;28;20548;-37
2021/05/31 11:48:09;;;;;;;3.70;3.40;;;14.40;99.90;;;;;;5144233;28;20456;-40
2021/05/31 11:50:41;;;;;;;3.50;3.13;;;14.40;99.90;;;;;;5142760;28;20604;-40
2021/05/31 11:53:13;;;;;;;3.70;3.40;;;14.40;99.90;;;;;;5144084;28;20465;-40
2021/05/31 11:55:46;;;;;;;3.50;3.20;;;14.30;99.90;;;;;;5143246;28;20445;-39
2021/05/31 11:58:17;;;;;;;4.30;3.53;;;14.30;99.90;;;;;;5143623;28;20468;-39
2021/05/31 12:00:47;;;;;;;3.93;3.17;;;14.30;99.90;;;;;;5142127;27;20476;-40
2021/05/31 12:03:19;;;;;;;3.47;3.27;;;14.30;99.90;;;;;;5143859;28;20449;-39
2021/05/31 12:05:55;;;;;;;4.00;3.70;;;14.20;99.90;;;;;;5143278;28;20491;-39
2021/05/31 12:08:25;;;;;;;3.43;3.10;;;14.20;99.90;;;;;;5140785;28;20556;-39
2021/05/31 12:10:57;;;;;;;3.73;3.43;;;14.10;99.90;;;;;;5143001;28;20506;-39
2021/05/31 12:13:32;;;;;;;6.53;3.60;;;14.10;99.90;;;;;;5136841;28;20492;-40
2021/05/31 12:16:13;;;;;;;4.17;3.80;;;14.10;99.90;;;;;;5142585;28;20515;-40
2021/05/31 12:18:44;;;;;;;4.13;3.77;;;14.00;99.90;;;;;;5143630;28;20542;-40
2021/05/31 12:21:15;;;;;;;3.93;3.63;;;14.00;99.90;;;;;;5142251;28;20444;-38
2021/05/31 12:23:50;;;;;;;3.50;3.13;;;14.00;99.90;;;;;;5143477;28;20445;-39
2021/05/31 12:26:24;;;;;;;3.30;3.07;;;14.00;99.90;;;;;;5142504;28;20521;-39
2021/05/31 12:28:55;;;;;;;4.13;3.83;;;14.00;99.90;;;;;;5143174;28;20471;-39
2021/05/31 12:31:34;;;;;;;3.83;3.53;;;14.00;99.90;;;;;;5143087;28;20451;-39
2021/05/31 12:34:05;;;;;;;3.73;3.33;;;14.00;99.90;;;;;;5136775;28;20521;-39
2021/05/31 12:36:36;;;;;;;4.20;3.87;;;14.00;99.90;;;;;;5143007;28;20436;-40
2021/05/31 12:39:08;;;;;;;3.63;3.33;;;14.00;99.90;;;;;;5130752;28;20500;-39
2021/05/31 12:41:40;;;;;;;3.70;3.50;;;13.90;99.90;;;;;;5139321;28;20459;-37
2021/05/31 12:44:10;;;;;;;4.07;3.70;;;13.90;99.90;;;;;;5143017;28;21038;-39
2021/05/31 12:46:42;;;;;;;4.33;3.53;;;13.90;99.90;;;;;;5131292;28;20437;-39
2021/05/31 12:49:15;;;;;;;4.00;3.70;;;13.80;99.90;;;;;;5143443;27;20453;-40
2021/05/31 12:52:05;;;;;;;3.13;2.93;;;13.90;99.90;;;;;;5146314;27;20471;-39
2021/05/31 12:54:36;;;;;;;3.77;3.47;;;13.80;99.90;;;;;;5146189;27;20554;-40
2021/05/31 12:57:17;;;;;;;10.10;4.07;;;13.80;99.90;;;;;;5146172;27;20437;-38
2021/05/31 12:59:49;;;;;;;3.97;3.60;;;13.70;99.90;;;;;;5145799;27;20472;-38
2021/05/31 13:02:20;;;;;;;4.73;3.20;;;13.80;99.90;;;;;;5146419;27;20468;-38
2021/05/31 13:05:01;;;;;;;3.67;3.37;;;13.90;99.90;;;;;;5141971;27;20452;-38
2021/05/31 13:07:35;;;;;;;3.50;3.20;;;14.00;99.90;;;;;;5146805;27;20445;-38
2021/05/31 13:10:13;;;;;;;3.87;3.57;;;14.10;99.90;;;;;;5146136;27;20449;-40
2021/05/31 13:12:57;;;;;;;3.33;2.90;;;14.20;99.90;;;;;;5146124;27;20501;-38
2021/05/31 13:15:40;;;;;;;3.90;3.43;;;14.20;99.90;;;;;;5146075;27;20866;-40
2021/05/31 13:18:12;;;;;;;3.67;3.30;;;14.20;99.90;;;;;;5146441;27;20456;-40
2021/05/31 13:20:43;;;;;;;3.73;3.20;;;14.30;99.90;;;;;;5145638;27;20492;-40